sensor_id;sensor_type;location;lat;lon;timestamp;pressure;altitude;pressure_sealevel;temperature;humidity
4836;BME280;66719;51.226;6.902;2023-02-22T00:00:56;100750.13;;;5.68;100.00
4836;BME280;66719;51.226;6.902;2023-02-22T00:03:29;100746.66;;;5.70;100.00
4836;BME280;66719;51.226;6.902;2023-02-22T00:05:59;100742.31;;;5.72;100.00
4836;BME280;66719;51.226;6.902;2023-02-22T00:08:30;100739.72;;;5.70;100.00
4836;BME280;66719;51.226;6.902;2023-02-22T00:11:01;100740.59;;;5.67;100.00
4836;BME280;66719;51.226;6.902;2023-02-22T00:13:28;100736.25;;;5.60;100.00
4836;BME280;66719;51.226;6.902;2023-02-22T00:15:56;100737.97;;;5.55;100.00
4836;BME280;66719;51.226;6.902;2023-02-22T00:18:23;100725.84;;;5.56;100.00
4836;BME280;66719;51.226;6.902;2023-02-22T00:20:57;100729.31;;;5.53;100.00
4836;BME280;66719;51.226;6.902;2023-02-22T00:23:28;100726.72;;;5.55;100.00
4836;BME280;66719;51.226;6.902;2023-02-22T00:25:56;100724.13;;;5.55;100.00
4836;BME280;66719;51.226;6.902;2023-02-22T00:28:23;100722.38;;;5.54;100.00
4836;BME280;66719;51.226;6.902;2023-02-22T00:30:50;100716.31;;;5.52;100.00
4836;BME280;66719;51.226;6.902;2023-02-22T00:33:17;100721.53;;;5.52;100.00
4836;BME280;66719;51.226;6.902;2023-02-22T00:35:44;100711.13;;;5.46;100.00
4836;BME280;66719;51.226;6.902;2023-02-22T00:38:13;100712.88;;;5.48;100.00
4836;BME280;66719;51.226;6.902;2023-02-22T00:40:40;100718.91;;;5.46;100.00
4836;BME280;66719;51.226;6.902;2023-02-22T00:43:07;100715.44;;;5.45;100.00
4836;BME280;66719;51.226;6.902;2023-02-22T00:45:34;100711.97;;;5.45;100.00
4836;BME280;66719;51.226;6.902;2023-02-22T00:48:03;100706.78;;;5.45;100.00
4836;BME280;66719;51.226;6.902;2023-02-22T00:50:31;100710.25;;;5.44;100.00
4836;BME280;66719;51.226;6.902;2023-02-22T00:52:59;100704.19;;;5.42;100.00
4836;BME280;66719;51.226;6.902;2023-02-22T00:55:30;100698.16;;;5.39;100.00
4836;BME280;66719;51.226;6.902;2023-02-22T00:57:57;100697.25;;;5.36;100.00
4836;BME280;66719;51.226;6.902;2023-02-22T01:02:58;100696.41;;;5.45;100.00
4836;BME280;66719;51.226;6.902;2023-02-22T01:05:27;100698.13;;;5.41;100.00
4836;BME280;66719;51.226;6.902;2023-02-22T01:07:56;100692.09;;;5.48;100.00
4836;BME280;66719;51.226;6.902;2023-02-22T01:10:24;100689.50;;;5.42;100.00
4836;BME280;66719;51.226;6.902;2023-02-22T01:12:51;100679.97;;;5.41;100.00
4836;BME280;66719;51.226;6.902;2023-02-22T01:15:21;100685.16;;;5.39;100.00
4836;BME280;66719;51.226;6.902;2023-02-22T01:17:50;100679.09;;;5.41;100.00
4836;BME280;66719;51.226;6.902;2023-02-22T01:20:18;100678.25;;;5.43;100.00
4836;BME280;66719;51.226;6.902;2023-02-22T01:22:47;100677.38;;;5.41;100.00
4836;BME280;66719;51.226;6.902;2023-02-22T01:25:17;100667.00;;;5.43;100.00
4836;BME280;66719;51.226;6.902;2023-02-22T01:27:44;100665.25;;;5.43;100.00
4836;BME280;66719;51.226;6.902;2023-02-22T01:30:13;100667.84;;;5.35;100.00
4836;BME280;66719;51.226;6.902;2023-02-22T01:32:41;100657.47;;;5.40;100.00
4836;BME280;66719;51.226;6.902;2023-02-22T01:35:12;100667.84;;;5.43;100.00
4836;BME280;66719;51.226;6.902;2023-02-22T01:37:40;100664.38;;;5.44;100.00
4836;BME280;66719;51.226;6.902;2023-02-22T01:40:08;100660.94;;;5.42;100.00
4836;BME280;66719;51.226;6.902;2023-02-22T01:42:36;100660.06;;;5.43;100.00
4836;BME280;66719;51.226;6.902;2023-02-22T01:48:22;100646.22;;;5.43;100.00
4836;BME280;66719;51.226;6.902;2023-02-22T01:50:57;100648.81;;;5.46;100.00
4836;BME280;66719;51.226;6.902;2023-02-22T01:54:18;100648.81;;;5.43;100.00
4836;BME280;66719;51.226;6.902;2023-02-22T01:56:26;100644.50;;;5.40;100.00
4836;BME280;66719;51.226;6.902;2023-02-22T01:59:01;100639.31;;;5.42;100.00
4836;BME280;66719;51.226;6.902;2023-02-22T02:01:28;100638.44;;;5.41;100.00
4836;BME280;66719;51.226;6.902;2023-02-22T02:03:57;100638.44;;;5.39;100.00
4836;BME280;66719;51.226;6.902;2023-02-22T02:06:27;100642.75;;;5.36;100.00
4836;BME280;66719;51.226;6.902;2023-02-22T02:09:02;100635.84;;;5.30;100.00
4836;BME280;66719;51.226;6.902;2023-02-22T02:11:31;100635.81;;;5.26;100.00
4836;BME280;66719;51.226;6.902;2023-02-22T02:13:57;100631.50;;;5.31;100.00
4836;BME280;66719;51.226;6.902;2023-02-22T02:16:34;100629.78;;;5.33;100.00
4836;BME280;66719;51.226;6.902;2023-02-22T02:19:09;100631.47;;;5.29;100.00
4836;BME280;66719;51.226;6.902;2023-02-22T02:22:06;100627.16;;;5.30;100.00
4836;BME280;66719;51.226;6.902;2023-02-22T02:27:25;100624.53;;;5.21;100.00
4836;BME280;66719;51.226;6.902;2023-02-22T02:35:03;100620.22;;;5.18;100.00
4836;BME280;66719;51.226;6.902;2023-02-22T02:45:32;100607.22;;;5.12;100.00
4836;BME280;66719;51.226;6.902;2023-02-22T02:48:04;100613.28;;;5.08;100.00
4836;BME280;66719;51.226;6.902;2023-02-22T02:50:40;100616.75;;;5.08;100.00
4836;BME280;66719;51.226;6.902;2023-02-22T02:53:09;100612.44;;;5.06;100.00
4836;BME280;66719;51.226;6.902;2023-02-22T02:55:36;100603.78;;;5.04;100.00
4836;BME280;66719;51.226;6.902;2023-02-22T02:58:05;100602.91;;;5.03;100.00
4836;BME280;66719;51.226;6.902;2023-02-22T03:00:36;100602.06;;;5.06;100.00
4836;BME280;66719;51.226;6.902;2023-02-22T03:11:13;100595.94;;;4.86;100.00
4836;BME280;66719;51.226;6.902;2023-02-22T03:14:08;100589.88;;;4.80;100.00
4836;BME280;66719;51.226;6.902;2023-02-22T03:16:48;100593.34;;;4.81;100.00
4836;BME280;66719;51.226;6.902;2023-02-22T03:19:27;100583.81;;;4.75;100.00
4836;BME280;66719;51.226;6.902;2023-02-22T03:24:32;100589.00;;;4.74;100.00
4836;BME280;66719;51.226;6.902;2023-02-22T03:27:06;100583.81;;;4.75;100.00
4836;BME280;66719;51.226;6.902;2023-02-22T03:29:38;100586.44;;;4.81;100.00
4836;BME280;66719;51.226;6.902;2023-02-22T03:32:12;100581.25;;;4.81;100.00
4836;BME280;66719;51.226;6.902;2023-02-22T03:35:12;100578.63;;;4.72;100.00
4836;BME280;66719;51.226;6.902;2023-02-22T03:37:43;100580.38;;;4.78;100.00
4836;BME280;66719;51.226;6.902;2023-02-22T03:40:14;100587.28;;;4.83;100.00
4836;BME280;66719;51.226;6.902;2023-02-22T03:42:45;100584.72;;;4.80;100.00
4836;BME280;66719;51.226;6.902;2023-02-22T03:45:16;100584.69;;;4.76;100.00
4836;BME280;66719;51.226;6.902;2023-02-22T03:47:47;100582.94;;;4.73;100.00
4836;BME280;66719;51.226;6.902;2023-02-22T03:50:21;100586.44;;;4.78;100.00
4836;BME280;66719;51.226;6.902;2023-02-22T03:52:51;100575.19;;;4.78;100.00
4836;BME280;66719;51.226;6.902;2023-02-22T03:55:18;100577.78;;;4.79;100.00
4836;BME280;66719;51.226;6.902;2023-02-22T03:57:49;100594.19;;;4.71;100.00
4836;BME280;66719;51.226;6.902;2023-02-22T04:00:24;100584.66;;;4.67;100.00
4836;BME280;66719;51.226;6.902;2023-02-22T04:02:50;100589.84;;;4.68;100.00
4836;BME280;66719;51.226;6.902;2023-02-22T04:05:17;100591.59;;;4.75;100.00
4836;BME280;66719;51.226;6.902;2023-02-22T04:07:44;100598.50;;;4.76;100.00
4836;BME280;66719;51.226;6.902;2023-02-22T04:10:12;100590.75;;;4.78;100.00
4836;BME280;66719;51.226;6.902;2023-02-22T04:12:40;100589.03;;;4.83;100.00
4836;BME280;66719;51.226;6.902;2023-02-22T04:15:08;100589.03;;;4.86;100.00
4836;BME280;66719;51.226;6.902;2023-02-22T04:17:34;100585.56;;;4.86;100.00
4836;BME280;66719;51.226;6.902;2023-02-22T04:20:01;100583.84;;;4.86;100.00
4836;BME280;66719;51.226;6.902;2023-02-22T04:22:28;100588.19;;;4.90;100.00
4836;BME280;66719;51.226;6.902;2023-02-22T04:24:55;100588.19;;;4.89;100.00
4836;BME280;66719;51.226;6.902;2023-02-22T04:27:21;100594.22;;;4.94;100.00
4836;BME280;66719;51.226;6.902;2023-02-22T04:29:48;100596.84;;;4.97;100.00
4836;BME280;66719;51.226;6.902;2023-02-22T04:32:15;100594.22;;;4.94;100.00
4836;BME280;66719;51.226;6.902;2023-02-22T04:34:41;100583.00;;;4.92;100.00
4836;BME280;66719;51.226;6.902;2023-02-22T04:37:08;100587.34;;;4.96;100.00
4836;BME280;66719;51.226;6.902;2023-02-22T04:39:35;100585.59;;;4.93;100.00
4836;BME280;66719;51.226;6.902;2023-02-22T04:42:02;100583.00;;;4.98;100.00
4836;BME280;66719;51.226;6.902;2023-02-22T04:44:28;100575.22;;;4.96;100.00
4836;BME280;66719;51.226;6.902;2023-02-22T04:46:55;100570.03;;;4.93;100.00
4836;BME280;66719;51.226;6.902;2023-02-22T04:49:23;100565.69;;;4.94;100.00
4836;BME280;66719;51.226;6.902;2023-02-22T04:51:49;100565.72;;;4.98;100.00
4836;BME280;66719;51.226;6.902;2023-02-22T04:54:15;100560.53;;;5.03;100.00
4836;BME280;66719;51.226;6.902;2023-02-22T04:56:43;100575.22;;;4.98;100.00
4836;BME280;66719;51.226;6.902;2023-02-22T04:59:10;100564.84;;;5.01;100.00
4836;BME280;66719;51.226;6.902;2023-02-22T05:01:37;100557.94;;;5.01;100.00
4836;BME280;66719;51.226;6.902;2023-02-22T05:04:05;100560.53;;;4.98;100.00
4836;BME280;66719;51.226;6.902;2023-02-22T05:06:32;100547.56;;;4.97;100.00
4836;BME280;66719;51.226;6.902;2023-02-22T05:08:59;100539.75;;;4.94;100.00
4836;BME280;66719;51.226;6.902;2023-02-22T05:11:25;100541.50;;;4.89;100.00
4836;BME280;66719;51.226;6.902;2023-02-22T05:13:52;100540.63;;;4.87;100.00
4836;BME280;66719;51.226;6.902;2023-02-22T05:16:18;100539.78;;;4.88;100.00
4836;BME280;66719;51.226;6.902;2023-02-22T05:18:45;100538.03;;;4.88;100.00
4836;BME280;66719;51.226;6.902;2023-02-22T05:21:11;100539.78;;;4.88;100.00
4836;BME280;66719;51.226;6.902;2023-02-22T05:23:38;100541.47;;;4.86;100.00
4836;BME280;66719;51.226;6.902;2023-02-22T05:26:05;100538.00;;;4.85;100.00
4836;BME280;66719;51.226;6.902;2023-02-22T05:28:31;100533.69;;;4.84;100.00
4836;BME280;66719;51.226;6.902;2023-02-22T05:30:58;100534.56;;;4.81;100.00
4836;BME280;66719;51.226;6.902;2023-02-22T05:33:24;100522.44;;;4.74;100.00
4836;BME280;66719;51.226;6.902;2023-02-22T05:35:51;100530.22;;;4.73;100.00
4836;BME280;66719;51.226;6.902;2023-02-22T05:38:17;100525.91;;;4.73;100.00
4836;BME280;66719;51.226;6.902;2023-02-22T05:40:44;100528.53;;;4.78;100.00
4836;BME280;66719;51.226;6.902;2023-02-22T05:43:10;100527.66;;;4.80;100.00
4836;BME280;66719;51.226;6.902;2023-02-22T05:45:37;100527.63;;;4.77;100.00
4836;BME280;66719;51.226;6.902;2023-02-22T05:48:03;100523.31;;;4.76;100.00
4836;BME280;66719;51.226;6.902;2023-02-22T05:50:30;100517.25;;;4.73;100.00
4836;BME280;66719;51.226;6.902;2023-02-22T05:52:58;100521.59;;;4.72;100.00
4836;BME280;66719;51.226;6.902;2023-02-22T05:55:25;100512.09;;;4.71;100.00
4836;BME280;66719;51.226;6.902;2023-02-22T05:57:52;100508.63;;;4.72;100.00
4836;BME280;66719;51.226;6.902;2023-02-22T06:00:26;100510.34;;;4.70;100.00
4836;BME280;66719;51.226;6.902;2023-02-22T06:02:57;100512.06;;;4.68;100.00
4836;BME280;66719;51.226;6.902;2023-02-22T06:05:25;100509.47;;;4.67;100.00
4836;BME280;66719;51.226;6.902;2023-02-22T06:07:52;100510.34;;;4.63;100.00
4836;BME280;66719;51.226;6.902;2023-02-22T06:10:19;100508.59;;;4.65;100.00
4836;BME280;66719;51.226;6.902;2023-02-22T06:12:46;100506.88;;;4.68;100.00
4836;BME280;66719;51.226;6.902;2023-02-22T06:15:18;100513.81;;;4.69;100.00
4836;BME280;66719;51.226;6.902;2023-02-22T06:17:45;100506.03;;;4.69;100.00
4836;BME280;66719;51.226;6.902;2023-02-22T06:20:15;100499.94;;;4.69;100.00
4836;BME280;66719;51.226;6.902;2023-02-22T06:22:41;100500.81;;;4.66;100.00
4836;BME280;66719;51.226;6.902;2023-02-22T06:25:14;100506.88;;;4.65;100.00
4836;BME280;66719;51.226;6.902;2023-02-22T06:27:41;100506.00;;;4.66;100.00
4836;BME280;66719;51.226;6.902;2023-02-22T06:30:09;100506.88;;;4.68;100.00
4836;BME280;66719;51.226;6.902;2023-02-22T06:32:38;100505.16;;;4.64;100.00
4836;BME280;66719;51.226;6.902;2023-02-22T06:35:05;100506.00;;;4.62;100.00
4836;BME280;66719;51.226;6.902;2023-02-22T06:37:32;100501.69;;;4.62;100.00
4836;BME280;66719;51.226;6.902;2023-02-22T06:39:58;100507.72;;;4.66;100.00
4836;BME280;66719;51.226;6.902;2023-02-22T06:42:30;100508.59;;;4.63;100.00
4836;BME280;66719;51.226;6.902;2023-02-22T06:44:57;100506.00;;;4.56;100.00
4836;BME280;66719;51.226;6.902;2023-02-22T06:47:23;100512.88;;;4.50;100.00
4836;BME280;66719;51.226;6.902;2023-02-22T06:49:54;100505.09;;;4.47;100.00
4836;BME280;66719;51.226;6.902;2023-02-22T06:52:21;100503.38;;;4.45;100.00
4836;BME280;66719;51.226;6.902;2023-02-22T06:54:49;100505.97;;;4.43;100.00
4836;BME280;66719;51.226;6.902;2023-02-22T06:57:16;100506.84;;;4.47;100.00
4836;BME280;66719;51.226;6.902;2023-02-22T06:59:43;100494.75;;;4.46;100.00
4836;BME280;66719;51.226;6.902;2023-02-22T07:02:13;100500.78;;;4.49;100.00
4836;BME280;66719;51.226;6.902;2023-02-22T07:04:40;100497.34;;;4.52;100.00
4836;BME280;66719;51.226;6.902;2023-02-22T07:07:09;100489.56;;;4.55;100.00
4836;BME280;66719;51.226;6.902;2023-02-22T07:09:35;100492.19;;;4.52;100.00
4836;BME280;66719;51.226;6.902;2023-02-22T07:12:02;100491.28;;;4.51;100.00
4836;BME280;66719;51.226;6.902;2023-02-22T07:14:28;100493.88;;;4.47;100.00
4836;BME280;66719;51.226;6.902;2023-02-22T07:16:55;100497.31;;;4.41;100.00
4836;BME280;66719;51.226;6.902;2023-02-22T07:19:21;100500.75;;;4.42;100.00
4836;BME280;66719;51.226;6.902;2023-02-22T07:21:48;100488.69;;;4.50;100.00
4836;BME280;66719;51.226;6.902;2023-02-22T07:24:16;100493.88;;;4.58;100.00
4836;BME280;66719;51.226;6.902;2023-02-22T07:26:42;100497.34;;;4.60;100.00
4836;BME280;66719;51.226;6.902;2023-02-22T07:29:08;100497.38;;;4.61;100.00
4836;BME280;66719;51.226;6.902;2023-02-22T07:31:37;100494.75;;;4.69;100.00
4836;BME280;66719;51.226;6.902;2023-02-22T07:34:04;100491.31;;;4.68;100.00
4836;BME280;66719;51.226;6.902;2023-02-22T07:36:30;100492.19;;;4.72;100.00
4836;BME280;66719;51.226;6.902;2023-02-22T07:38:57;100490.47;;;4.77;100.00
4836;BME280;66719;51.226;6.902;2023-02-22T07:41:24;100487.88;;;4.80;100.00
4836;BME280;66719;51.226;6.902;2023-02-22T07:43:51;100488.78;;;4.87;100.00
4836;BME280;66719;51.226;6.902;2023-02-22T07:46:17;100485.28;;;4.91;100.00
4836;BME280;66719;51.226;6.902;2023-02-22T07:48:44;100489.59;;;4.95;100.00
4836;BME280;66719;51.226;6.902;2023-02-22T07:51:14;100484.41;;;4.95;100.00
4836;BME280;66719;51.226;6.902;2023-02-22T07:53:41;100474.91;;;5.01;100.00
4836;BME280;66719;51.226;6.902;2023-02-22T07:56:07;100472.34;;;5.06;100.00
4836;BME280;66719;51.226;6.902;2023-02-22T07:58:34;100467.13;;;5.09;100.00
4836;BME280;66719;51.226;6.902;2023-02-22T08:01:00;100472.31;;;5.12;100.00
4836;BME280;66719;51.226;6.902;2023-02-22T08:03:32;100474.06;;;5.07;100.00
4836;BME280;66719;51.226;6.902;2023-02-22T08:06:03;100474.06;;;5.16;100.00
4836;BME280;66719;51.226;6.902;2023-02-22T08:08:30;100465.38;;;5.26;100.00
4836;BME280;66719;51.226;6.902;2023-02-22T08:10:56;100454.16;;;5.32;100.00
4836;BME280;66719;51.226;6.902;2023-02-22T08:13:23;100462.75;;;5.38;100.00
4836;BME280;66719;51.226;6.902;2023-02-22T08:15:51;100456.69;;;5.46;100.00
4836;BME280;66719;51.226;6.902;2023-02-22T08:18:19;100450.63;;;5.53;100.00
4836;BME280;66719;51.226;6.902;2023-02-22T08:20:48;100444.56;;;5.60;100.00
4836;BME280;66719;51.226;6.902;2023-02-22T08:23:16;100438.47;;;5.68;100.00
4836;BME280;66719;51.226;6.902;2023-02-22T08:25:43;100441.91;;;5.78;100.00
4836;BME280;66719;51.226;6.902;2023-02-22T08:28:13;100447.06;;;5.87;100.00
4836;BME280;66719;51.226;6.902;2023-02-22T08:30:41;100438.41;;;5.94;100.00
4836;BME280;66719;51.226;6.902;2023-02-22T08:33:12;100439.22;;;6.04;100.00
4836;BME280;66719;51.226;6.902;2023-02-22T08:35:41;100436.59;;;6.12;100.00
4836;BME280;66719;51.226;6.902;2023-02-22T08:38:16;100433.97;;;6.18;100.00
4836;BME280;66719;51.226;6.902;2023-02-22T08:40:42;100425.22;;;6.25;100.00
4836;BME280;66719;51.226;6.902;2023-02-22T08:43:09;100430.41;;;6.34;100.00
4836;BME280;66719;51.226;6.902;2023-02-22T08:45:35;100430.34;;;6.40;100.00
4836;BME280;66719;51.226;6.902;2023-02-22T08:48:02;100433.75;;;6.53;100.00
4836;BME280;66719;51.226;6.902;2023-02-22T08:50:30;100424.13;;;6.60;100.00
4836;BME280;66719;51.226;6.902;2023-02-22T08:53:00;100426.69;;;6.66;100.00
4836;BME280;66719;51.226;6.902;2023-02-22T08:55:30;100420.63;;;6.70;100.00
4836;BME280;66719;51.226;6.902;2023-02-22T08:57:58;100411.81;;;6.83;100.00
4836;BME280;66719;51.226;6.902;2023-02-22T09:00:26;100417.00;;;6.86;100.00
4836;BME280;66719;51.226;6.902;2023-02-22T09:02:54;100420.38;;;6.99;100.00
4836;BME280;66719;51.226;6.902;2023-02-22T09:05:21;100420.31;;;7.03;100.00
4836;BME280;66719;51.226;6.902;2023-02-22T09:07:47;100421.19;;;7.05;100.00
4836;BME280;66719;51.226;6.902;2023-02-22T09:10:20;100413.31;;;7.13;100.00
4836;BME280;66719;51.226;6.902;2023-02-22T09:12:53;100418.47;;;7.16;100.00
4836;BME280;66719;51.226;6.902;2023-02-22T09:15:24;100410.69;;;7.15;100.00
4836;BME280;66719;51.226;6.902;2023-02-22T09:17:51;100418.44;;;7.19;100.00
4836;BME280;66719;51.226;6.902;2023-02-22T09:20:19;100414.94;;;7.22;100.00
4836;BME280;66719;51.226;6.902;2023-02-22T09:22:47;100420.84;;;7.37;100.00
4836;BME280;66719;51.226;6.902;2023-02-22T09:25:15;100409.47;;;7.46;100.00
4836;BME280;66719;51.226;6.902;2023-02-22T09:27:45;100410.25;;;7.53;100.00
4836;BME280;66719;51.226;6.902;2023-02-22T09:30:26;100410.19;;;7.60;100.00
4836;BME280;66719;51.226;6.902;2023-02-22T09:32:58;100411.13;;;7.53;100.00
4836;BME280;66719;51.226;6.902;2023-02-22T09:35:26;100401.59;;;7.52;100.00
4836;BME280;66719;51.226;6.902;2023-02-22T09:37:57;100413.59;;;7.65;100.00
4836;BME280;66719;51.226;6.902;2023-02-22T09:40:29;100422.94;;;7.83;100.00
4836;BME280;66719;51.226;6.902;2023-02-22T09:48:15;100414.91;;;7.99;100.00
4836;BME280;66719;51.226;6.902;2023-02-22T09:50:50;100416.72;;;7.95;100.00
4836;BME280;66719;51.226;6.902;2023-02-22T09:53:24;100421.13;;;7.88;100.00
4836;BME280;66719;51.226;6.902;2023-02-22T09:56:00;100429.66;;;8.01;100.00
4836;BME280;66719;51.226;6.902;2023-02-22T10:01:23;100422.72;;;8.02;100.00
4836;BME280;66719;51.226;6.902;2023-02-22T10:04:41;100426.19;;;8.02;100.00
4836;BME280;66719;51.226;6.902;2023-02-22T10:07:27;100417.44;;;8.05;100.00
4836;BME280;66719;51.226;6.902;2023-02-22T10:09:56;100416.50;;;8.10;100.00
4836;BME280;66719;51.226;6.902;2023-02-22T10:18:06;100413.84;;;8.13;100.00
4836;BME280;66719;51.226;6.902;2023-02-22T10:26:34;100401.22;;;8.47;100.00
4836;BME280;66719;51.226;6.902;2023-02-22T10:29:35;100408.13;;;8.50;100.00
4836;BME280;66719;51.226;6.902;2023-02-22T10:32:12;100397.44;;;8.67;100.00
4836;BME280;66719;51.226;6.902;2023-02-22T10:34:46;100400.00;;;8.68;100.00
4836;BME280;66719;51.226;6.902;2023-02-22T10:37:24;100398.09;;;8.80;100.00
4836;BME280;66719;51.226;6.902;2023-02-22T10:40:12;100398.84;;;8.88;100.00
4836;BME280;66719;51.226;6.902;2023-02-22T10:42:43;100392.63;;;8.95;100.00
4836;BME280;66719;51.226;6.902;2023-02-22T10:45:19;100384.06;;;8.87;100.00
4836;BME280;66719;51.226;6.902;2023-02-22T10:47:48;100387.41;;;8.93;100.00
4836;BME280;66719;51.226;6.902;2023-02-22T10:50:15;100381.09;;;9.06;100.00
4836;BME280;66719;51.226;6.902;2023-02-22T10:52:41;100374.09;;;9.09;100.00
4836;BME280;66719;51.226;6.902;2023-02-22T10:55:12;100375.63;;;9.19;100.00
4836;BME280;66719;51.226;6.902;2023-02-22T10:57:44;100367.66;;;9.26;100.00
4836;BME280;66719;51.226;6.902;2023-02-22T11:02:50;100371.00;;;9.34;100.00
4836;BME280;66719;51.226;6.902;2023-02-22T11:05:33;100365.50;;;9.48;100.00
4836;BME280;66719;51.226;6.902;2023-02-22T11:08:18;100366.25;;;9.53;100.00
4836;BME280;66719;51.226;6.902;2023-02-22T11:10:51;100355.66;;;9.61;100.00
4836;BME280;66719;51.226;6.902;2023-02-22T11:16:15;100366.03;;;9.64;100.00
4836;BME280;66719;51.226;6.902;2023-02-22T11:18:43;100360.53;;;9.78;100.00
4836;BME280;66719;51.226;6.902;2023-02-22T11:21:10;100355.19;;;9.84;100.00
4836;BME280;66719;51.226;6.902;2023-02-22T11:23:41;100354.84;;;9.99;100.00
4836;BME280;66719;51.226;6.902;2023-02-22T11:26:12;100345.16;;;10.03;100.00
4836;BME280;66719;51.226;6.902;2023-02-22T11:28:45;100351.81;;;10.16;100.00
4836;BME280;66719;51.226;6.902;2023-02-22T11:31:21;100350.19;;;10.12;100.00
4836;BME280;66719;51.226;6.902;2023-02-22T11:33:54;100350.09;;;10.15;100.00
4836;BME280;66719;51.226;6.902;2023-02-22T11:36:38;100349.94;;;10.24;100.00
4836;BME280;66719;51.226;6.902;2023-02-22T11:39:25;100349.56;;;10.39;100.00
4836;BME280;66719;51.226;6.902;2023-02-22T11:41:54;100346.63;;;10.53;100.00
4836;BME280;66719;51.226;6.902;2023-02-22T11:44:28;100337.78;;;10.57;100.00
4836;BME280;66719;51.226;6.902;2023-02-22T11:47:00;100339.28;;;10.67;100.00
4836;BME280;66719;51.226;6.902;2023-02-22T11:49:37;100341.94;;;10.66;100.00
4836;BME280;66719;51.226;6.902;2023-02-22T11:52:15;100339.38;;;10.64;100.00
4836;BME280;66719;51.226;6.902;2023-02-22T12:05:43;100322.00;;;10.94;100.00
4836;BME280;66719;51.226;6.902;2023-02-22T12:08:35;100317.59;;;10.96;100.00
4836;BME280;66719;51.226;6.902;2023-02-22T12:11:09;100317.44;;;11.01;100.00
4836;BME280;66719;51.226;6.902;2023-02-22T12:14:05;100314.06;;;10.97;100.00
4836;BME280;66719;51.226;6.902;2023-02-22T12:19:36;100313.97;;;11.00;100.00
4836;BME280;66719;51.226;6.902;2023-02-22T12:22:09;100313.25;;;10.95;100.00
4836;BME280;66719;51.226;6.902;2023-02-22T12:24:44;100312.22;;;11.01;100.00
4836;BME280;66719;51.226;6.902;2023-02-22T12:27:27;100313.72;;;11.10;100.00
4836;BME280;66719;51.226;6.902;2023-02-22T12:30:19;100319.34;;;11.27;100.00
4836;BME280;66719;51.226;6.902;2023-02-22T12:32:54;100321.94;;;11.28;100.00
4836;BME280;66719;51.226;6.902;2023-02-22T12:35:29;100313.19;;;11.29;100.00
4836;BME280;66719;51.226;6.902;2023-02-22T12:43:23;100320.22;;;11.58;100.00
4836;BME280;66719;51.226;6.902;2023-02-22T12:46:02;100308.25;;;11.78;100.00
4836;BME280;66719;51.226;6.902;2023-02-22T12:51:27;100312.00;;;11.69;100.00
4836;BME280;66719;51.226;6.902;2023-02-22T12:56:52;100320.16;;;11.91;100.00
4836;BME280;66719;51.226;6.902;2023-02-22T12:59:44;100306.56;;;12.05;100.00
4836;BME280;66719;51.226;6.902;2023-02-22T13:02:19;100299.38;;;12.11;100.00
4836;BME280;66719;51.226;6.902;2023-02-22T13:04:47;100305.91;;;11.98;100.00
4836;BME280;66719;51.226;6.902;2023-02-22T13:07:27;100307.66;;;11.98;100.00
4836;BME280;66719;51.226;6.902;2023-02-22T13:12:55;100305.47;;;12.12;100.00
4836;BME280;66719;51.226;6.902;2023-02-22T13:18:13;100302.44;;;12.24;100.00
4836;BME280;66719;51.226;6.902;2023-02-22T13:26:18;100294.97;;;12.65;100.00
4836;BME280;66719;51.226;6.902;2023-02-22T13:42:18;100294.94;;;12.91;100.00
4836;BME280;66719;51.226;6.902;2023-02-22T13:47:54;100285.88;;;12.75;100.00
4836;BME280;66719;51.226;6.902;2023-02-22T13:52:56;100292.34;;;12.65;100.00
4836;BME280;66719;51.226;6.902;2023-02-22T13:55:27;100293.00;;;12.71;100.00
4836;BME280;66719;51.226;6.902;2023-02-22T13:58:14;100291.66;;;12.85;100.00
4836;BME280;66719;51.226;6.902;2023-02-22T14:00:48;100284.09;;;13.00;100.00
4836;BME280;66719;51.226;6.902;2023-02-22T14:03:29;100280.97;;;13.14;100.00
4836;BME280;66719;51.226;6.902;2023-02-22T14:06:05;100283.44;;;13.19;100.00
4836;BME280;66719;51.226;6.902;2023-02-22T14:16:28;100290.06;;;13.06;100.00
4836;BME280;66719;51.226;6.902;2023-02-22T14:21:56;100290.47;;;12.93;100.00
4836;BME280;66719;51.226;6.902;2023-02-22T14:24:23;100288.56;;;12.98;100.00
4836;BME280;66719;51.226;6.902;2023-02-22T14:27:01;100285.22;;;12.93;100.00
4836;BME280;66719;51.226;6.902;2023-02-22T14:29:29;100292.22;;;12.94;100.00
4836;BME280;66719;51.226;6.902;2023-02-22T14:32:05;100288.03;;;12.89;100.00
4836;BME280;66719;51.226;6.902;2023-02-22T14:34:42;100283.16;;;12.78;100.00
4836;BME280;66719;51.226;6.902;2023-02-22T14:37:25;100274.75;;;12.68;100.00
4836;BME280;66719;51.226;6.902;2023-02-22T14:42:29;100280.00;;;12.68;100.00
4836;BME280;66719;51.226;6.902;2023-02-22T14:48:07;100280.94;;;12.66;100.00
4836;BME280;66719;51.226;6.902;2023-02-22T14:55:37;100282.97;;;12.83;100.00
4836;BME280;66719;51.226;6.902;2023-02-22T14:58:17;100287.50;;;12.79;100.00
4836;BME280;66719;51.226;6.902;2023-02-22T15:00:50;100278.03;;;12.73;100.00
4836;BME280;66719;51.226;6.902;2023-02-22T15:03:31;100280.84;;;12.69;100.00
4836;BME280;66719;51.226;6.902;2023-02-22T15:06:14;100279.06;;;12.69;100.00
4836;BME280;66719;51.226;6.902;2023-02-22T15:08:41;100285.06;;;12.73;100.00
4836;BME280;66719;51.226;6.902;2023-02-22T15:11:27;100283.19;;;12.77;100.00
4836;BME280;66719;51.226;6.902;2023-02-22T15:13:59;100285.13;;;12.71;100.00
4836;BME280;66719;51.226;6.902;2023-02-22T15:16:29;100283.50;;;12.67;100.00
4836;BME280;66719;51.226;6.902;2023-02-22T15:18:58;100282.03;;;12.60;100.00
4836;BME280;66719;51.226;6.902;2023-02-22T15:21:27;100284.00;;;12.54;100.00
4836;BME280;66719;51.226;6.902;2023-02-22T15:23:58;100280.69;;;12.47;100.00
4836;BME280;66719;51.226;6.902;2023-02-22T15:26:30;100282.78;;;12.37;100.00
4836;BME280;66719;51.226;6.902;2023-02-22T15:29:01;100288.59;;;12.47;100.00
4836;BME280;66719;51.226;6.902;2023-02-22T15:31:34;100277.94;;;12.52;100.00